createdAt,value
2023-04-02T00:04:36.388Z,9.32
2023-04-02T00:09:37.523Z,9.38
2023-04-02T00:14:38.677Z,9.35
2023-04-02T00:19:39.843Z,9.28
2023-04-02T00:24:40.953Z,9.09
2023-04-02T00:29:42.080Z,9.04
2023-04-02T00:34:43.253Z,8.96
2023-04-02T00:39:44.357Z,8.91
2023-04-02T00:44:45.513Z,8.79
2023-04-02T00:49:46.732Z,8.75
2023-04-02T00:54:47.780Z,8.60
2023-04-02T00:59:48.979Z,8.53
2023-04-02T01:04:50.130Z,8.45
2023-04-02T01:09:52.390Z,7.96
2023-04-02T01:14:51.480Z,7.90
2023-04-02T01:19:52.736Z,7.81
2023-04-02T01:24:54.828Z,7.69
2023-04-02T01:29:53.854Z,7.53
2023-04-02T01:34:55.027Z,7.56
2023-04-02T01:39:57.127Z,7.66
2023-04-02T01:44:56.278Z,7.56
2023-04-02T01:49:57.384Z,7.50
2023-04-02T01:54:59.605Z,7.60
2023-04-02T01:59:58.739Z,7.72
2023-04-02T02:04:59.864Z,7.74
2023-04-02T02:10:00.097Z,7.78
2023-04-02T02:15:01.172Z,7.87
2023-04-02T02:20:02.282Z,7.78
2023-04-02T02:25:03.429Z,7.79
2023-04-02T02:30:04.817Z,7.84
2023-04-02T02:35:06.009Z,7.99
2023-04-02T02:40:07.053Z,7.99
2023-04-02T02:45:08.180Z,7.84
2023-04-02T02:50:08.287Z,7.62
2023-04-02T02:55:10.408Z,7.52
2023-04-02T03:00:10.438Z,7.63
2023-04-02T03:05:09.588Z,7.63
2023-04-02T03:10:11.619Z,7.38
2023-04-02T03:15:10.732Z,7.50
2023-04-02T03:20:11.906Z,7.53
2023-04-02T03:25:14.010Z,7.38
2023-04-02T03:30:13.114Z,7.26
2023-04-02T03:35:14.300Z,7.26
2023-04-02T03:40:16.375Z,7.35
2023-04-02T03:45:16.571Z,7.35
2023-04-02T03:50:16.604Z,7.40
2023-04-02T03:55:14.985Z,7.42
2023-04-02T04:00:16.089Z,7.47
2023-04-02T04:05:16.212Z,7.55
2023-04-02T04:10:17.295Z,7.58
2023-04-02T04:15:18.357Z,7.45
2023-04-02T04:20:20.425Z,7.31
2023-04-02T04:25:20.509Z,7.32
2023-04-02T04:30:19.580Z,7.37
2023-04-02T04:35:21.755Z,7.52
2023-04-02T04:40:20.790Z,7.44
2023-04-02T04:45:21.881Z,7.50
2023-04-02T04:50:23.970Z,7.59
2023-04-02T04:55:23.181Z,7.52
2023-04-02T05:00:24.239Z,7.45
2023-04-02T05:05:25.347Z,7.56
2023-04-02T05:10:27.421Z,7.69
2023-04-02T05:15:27.508Z,7.78
2023-04-02T05:20:26.601Z,7.84
2023-04-02T05:25:27.743Z,8.00
2023-04-02T05:30:29.039Z,7.69
2023-04-02T05:35:30.151Z,7.71
2023-04-02T05:40:33.228Z,7.74
2023-04-02T05:45:34.571Z,7.72
2023-04-02T05:50:33.745Z,7.82
2023-04-02T05:55:35.075Z,7.96
2023-04-02T06:00:36.212Z,8.20
2023-04-02T06:05:37.458Z,8.35
2023-04-02T06:10:39.679Z,8.39
2023-04-02T06:15:39.861Z,8.51
2023-04-02T06:20:39.954Z,8.62
2023-04-02T06:25:39.090Z,8.86
2023-04-02T06:30:40.202Z,9.04
2023-04-02T06:35:42.464Z,9.30
2023-04-02T06:40:41.474Z,9.70
2023-04-02T06:45:42.622Z,9.94
2023-04-02T06:50:43.756Z,9.71
2023-04-02T06:55:44.838Z,9.13
2023-04-02T07:00:46.920Z,9.32
2023-04-02T07:05:46.966Z,9.38
2023-04-02T07:10:45.112Z,9.43
2023-04-02T07:15:46.159Z,9.73
2023-04-02T07:20:48.567Z,9.60
2023-04-02T07:25:49.637Z,9.46
2023-04-02T07:30:48.776Z,9.67
2023-04-02T07:35:50.857Z,9.97
2023-04-02T07:40:50.928Z,10.40
2023-04-02T07:45:51.003Z,10.78
2023-04-02T07:50:50.117Z,10.95
2023-04-02T07:55:51.264Z,11.43
2023-04-02T08:00:52.483Z,12.33
2023-04-02T08:05:53.584Z,12.82
2023-04-02T08:10:54.778Z,13.14
2023-04-02T08:15:55.830Z,13.04
2023-04-02T08:20:56.967Z,13.17
2023-04-02T08:25:58.082Z,13.29
2023-04-02T08:30:59.288Z,13.76
2023-04-02T08:36:01.551Z,12.26
2023-04-02T08:41:01.698Z,12.81
2023-04-02T08:46:00.791Z,13.25
2023-04-02T08:51:01.972Z,12.27
2023-04-02T08:56:03.095Z,12.39
2023-04-02T09:01:04.217Z,12.78
2023-04-02T09:06:05.530Z,13.06
2023-04-02T09:11:06.567Z,13.14
2023-04-02T09:16:06.678Z,13.29
2023-04-02T09:21:07.720Z,13.80
2023-04-02T09:26:08.999Z,13.30
2023-04-02T09:31:10.136Z,13.61
2023-04-02T09:36:11.211Z,13.62
2023-04-02T09:41:13.324Z,13.44
2023-04-02T09:46:12.459Z,13.21
2023-04-02T09:51:14.061Z,13.33
2023-04-02T09:56:13.251Z,13.22
2023-04-02T10:01:15.339Z,13.03
2023-04-02T10:06:14.398Z,13.41
2023-04-02T10:11:15.497Z,13.88
2023-04-02T10:16:16.639Z,13.99
2023-04-02T10:21:17.721Z,13.81
2023-04-02T10:26:18.837Z,13.20
2023-04-02T10:31:20.975Z,13.51
2023-04-02T10:36:20.338Z,14.25
2023-04-02T10:41:21.491Z,14.17
2023-04-02T10:46:24.995Z,13.43
2023-04-02T10:51:22.524Z,13.61
2023-04-02T10:56:23.679Z,13.24
2023-04-02T11:01:24.822Z,13.36
2023-04-02T11:06:25.886Z,13.47
2023-04-02T11:11:27.197Z,13.47
2023-04-02T11:16:28.240Z,13.22
2023-04-02T11:21:30.288Z,13.44
2023-04-02T11:26:29.337Z,13.07
2023-04-02T11:31:29.538Z,13.04
2023-04-02T11:36:30.633Z,12.97
2023-04-02T11:41:32.707Z,12.92
2023-04-02T11:46:33.274Z,13.03
2023-04-02T11:51:32.352Z,13.11
2023-04-02T11:56:34.686Z,13.14
2023-04-02T12:01:33.834Z,13.30
2023-04-02T12:06:37.084Z,13.11
2023-04-02T12:11:36.229Z,13.21
2023-04-02T12:16:37.452Z,13.52
2023-04-02T12:21:38.575Z,13.30
2023-04-02T12:26:42.821Z,13.25
2023-04-02T12:31:39.920Z,13.38
2023-04-02T12:36:41.125Z,13.54
2023-04-02T12:41:42.209Z,13.49
2023-04-02T12:46:43.372Z,13.29
2023-04-02T12:51:44.478Z,13.32
2023-04-02T12:56:45.510Z,13.37
2023-04-02T13:01:46.741Z,13.61
2023-04-02T13:06:47.895Z,13.94
2023-04-02T13:11:49.997Z,13.81
2023-04-02T13:16:49.126Z,13.81
2023-04-02T13:21:51.253Z,14.68
2023-04-02T13:26:52.417Z,15.03
2023-04-02T13:31:51.574Z,15.26
2023-04-02T13:36:52.637Z,16.44
2023-04-02T13:41:53.893Z,15.05
2023-04-02T13:46:55.485Z,14.60
2023-04-02T13:51:54.781Z,14.17
2023-04-02T13:56:56.018Z,13.61
2023-04-02T14:01:57.189Z,13.63
2023-04-02T14:06:58.292Z,13.30
2023-04-02T14:11:59.457Z,13.44
2023-04-02T14:17:00.915Z,13.22
2023-04-02T14:22:00.969Z,13.21
2023-04-02T14:27:01.656Z,13.40
2023-04-02T14:31:59.733Z,13.32
2023-04-02T14:37:00.938Z,13.27
2023-04-02T14:42:02.001Z,13.44
2023-04-02T14:47:03.158Z,13.58
2023-04-02T14:52:04.740Z,13.67
2023-04-02T14:57:03.862Z,14.46
2023-04-02T15:02:04.995Z,14.42
2023-04-02T15:07:06.146Z,14.07
2023-04-02T15:12:08.485Z,14.34
2023-04-02T15:17:08.926Z,14.56
2023-04-02T15:22:09.806Z,14.56
2023-04-02T15:27:14.760Z,14.94
2023-04-02T15:32:10.254Z,15.43
2023-04-02T15:37:09.385Z,16.35
2023-04-02T15:42:10.496Z,16.65
2023-04-02T15:47:11.629Z,16.81
2023-04-02T15:52:12.947Z,16.67
2023-04-02T15:57:16.148Z,15.45
2023-04-02T16:02:15.399Z,15.13
2023-04-02T16:07:17.743Z,15.28
2023-04-02T16:12:18.187Z,14.49
2023-04-02T16:17:24.790Z,14.38
2023-04-02T16:22:19.037Z,14.28
2023-04-02T16:27:18.500Z,14.01
2023-04-02T16:32:20.978Z,13.87
2023-04-02T16:37:20.738Z,13.74
2023-04-02T16:42:22.173Z,13.06
2023-04-02T16:47:23.671Z,13.44
2023-04-02T16:52:23.189Z,13.14
2023-04-02T16:57:25.635Z,13.20
2023-04-02T17:02:25.735Z,13.18
2023-04-02T17:07:25.118Z,13.18
2023-04-02T17:12:26.499Z,13.06
2023-04-02T17:17:28.911Z,12.81
2023-04-02T17:22:28.292Z,12.67
2023-04-02T17:27:29.650Z,12.57
2023-04-02T17:32:31.152Z,12.37
2023-04-02T17:37:30.528Z,12.16
2023-04-02T17:42:32.125Z,12.02
2023-04-02T17:47:31.604Z,11.87
2023-04-02T17:52:33.290Z,11.80
2023-04-02T17:57:32.776Z,11.75
2023-04-02T18:02:32.274Z,11.72
2023-04-02T18:07:32.445Z,11.57
2023-04-02T18:12:33.529Z,11.50
2023-04-02T18:17:32.907Z,11.46
2023-04-02T18:22:32.414Z,11.24
2023-04-02T18:27:31.641Z,11.14
2023-04-02T18:32:34.056Z,11.07
2023-04-02T18:37:33.617Z,10.99
2023-04-02T18:42:34.022Z,10.91
2023-04-02T18:47:33.604Z,10.86
2023-04-02T18:52:33.048Z,10.83
2023-04-02T18:57:33.708Z,10.78
2023-04-02T19:02:34.561Z,10.68
2023-04-02T19:07:35.112Z,10.59
2023-04-02T19:12:34.634Z,10.55
2023-04-02T19:17:34.156Z,10.53
2023-04-02T19:22:33.634Z,10.44
2023-04-02T19:27:33.855Z,10.30
2023-04-02T19:32:34.247Z,10.22
2023-04-02T19:37:34.967Z,10.28
2023-04-02T19:42:37.791Z,10.19
2023-04-02T19:47:36.071Z,10.18
2023-04-02T19:52:35.600Z,10.18
2023-04-02T19:57:35.074Z,10.15
2023-04-02T20:02:36.503Z,10.09
2023-04-02T20:07:39.046Z,10.10
2023-04-02T20:12:38.486Z,10.10
2023-04-02T20:17:40.142Z,10.03
2023-04-02T20:22:40.560Z,10.06
2023-04-02T20:27:40.014Z,10.06
2023-04-02T20:32:40.563Z,10.09
2023-04-02T20:37:39.858Z,10.15
2023-04-02T20:42:41.218Z,10.00
2023-04-02T20:47:43.480Z,9.78
2023-04-02T20:52:42.680Z,9.76
2023-04-02T20:57:44.769Z,9.73
2023-04-02T21:02:44.916Z,9.67
2023-04-02T21:07:43.974Z,9.61
2023-04-02T21:12:46.040Z,9.46
2023-04-02T21:17:47.163Z,9.39
2023-04-02T21:22:48.290Z,9.30
2023-04-02T21:27:48.349Z,9.34
2023-04-02T21:32:47.459Z,9.16
2023-04-02T21:37:49.839Z,9.04
2023-04-02T21:42:48.893Z,9.06
2023-04-02T21:47:50.032Z,8.88
2023-04-02T21:52:51.367Z,8.69
2023-04-02T21:57:53.461Z,8.60
2023-04-02T22:02:53.578Z,8.51
2023-04-02T22:07:53.869Z,8.39
2023-04-02T22:12:52.898Z,8.29
2023-04-02T22:17:54.036Z,8.29
2023-04-02T22:22:55.400Z,8.32
2023-04-02T22:27:56.605Z,8.39
2023-04-02T22:32:57.777Z,8.36
2023-04-02T22:37:58.975Z,8.33
2023-04-02T22:43:00.194Z,8.25
2023-04-02T22:48:01.422Z,8.11
2023-04-02T22:53:02.474Z,8.04
2023-04-02T22:58:03.715Z,8.04
2023-04-02T23:03:04.923Z,8.08
2023-04-02T23:08:06.078Z,8.02
2023-04-02T23:13:07.218Z,7.94
2023-04-02T23:18:07.492Z,7.93
2023-04-02T23:23:08.619Z,7.87
2023-04-02T23:28:09.802Z,7.87
2023-04-02T23:33:11.031Z,7.89
2023-04-02T23:38:12.207Z,7.84
2023-04-02T23:43:13.399Z,7.79
2023-04-02T23:48:15.451Z,7.75
2023-04-02T23:53:14.685Z,7.75
2023-04-02T23:58:15.726Z,7.59
